Time;durP1;ratioP1;P1;durP2;ratioP2;P2;SDS_P1;SDS_P2;PMS_P1;PMS_P2;Temp;Humidity;BMP_temperature;BMP_pressure;BME280_temperature;BME280_humidity;BME280_pressure;Samples;Min_cycle;Max_cycle;Signal;HPM_P1;HPM_P2
2022/05/13 00:00:24;;;;;;;8.20;5.93;;;;;;;10.85;99.58;100811.47;5202987;28;20115;-76
2022/05/13 00:02:54;;;;;;;9.18;6.10;;;;;;;10.76;99.78;100835.25;5202880;28;20280;-76
2022/05/13 00:05:25;;;;;;;11.20;6.90;;;;;;;10.67;100.00;100830.34;5202641;28;20025;-76
2022/05/13 00:07:55;;;;;;;11.00;6.80;;;;;;;11.09;100.00;100817.56;5202879;28;20057;-76
2022/05/13 00:10:25;;;;;;;9.50;6.65;;;;;;;11.27;98.77;100835.25;5202593;28;20482;-76
2022/05/13 00:12:56;;;;;;;11.68;7.57;;;;;;;11.43;97.62;100807.66;5202570;28;20041;-76
2022/05/13 00:15:27;;;;;;;10.17;6.80;;;;;;;11.35;98.47;100822.78;5202740;28;20040;-76
2022/05/13 00:17:57;;;;;;;9.93;6.85;;;;;;;11.51;97.98;100817.84;5202701;28;20312;-76
2022/05/13 00:20:28;;;;;;;9.52;7.38;;;;;;;11.48;96.33;100795.25;5202305;28;20682;-76
2022/05/13 00:22:58;;;;;;;10.30;7.10;;;;;;;11.44;97.68;100809.34;5184737;28;20109;-76
2022/05/13 00:25:32;;;;;;;9.25;6.47;;;;;;;11.31;99.46;100808.06;5193518;28;20087;-76
2022/05/13 00:28:05;;;;;;;12.30;7.30;;;;;;;11.31;99.07;100807.22;5197762;28;20059;-77
2022/05/13 00:30:43;;;;;;;11.90;6.95;;;;;;;11.50;95.49;100803.91;5184110;28;20032;-76
2022/05/13 00:33:14;;;;;;;10.48;6.65;;;;;;;11.33;96.66;100792.31;5202050;28;20084;-76
2022/05/13 00:35:45;;;;;;;9.02;6.65;;;;;;;11.22;98.04;100792.69;5202283;28;20037;-76
2022/05/13 00:38:15;;;;;;;11.68;7.00;;;;;;;11.11;97.91;100789.59;5202268;28;20034;-76
2022/05/13 00:40:46;;;;;;;12.32;7.40;;;;;;;11.26;96.73;100786.44;5201988;28;20029;-76
2022/05/13 00:43:44;;;;;;;8.70;6.90;;;;;;;11.15;97.42;100785.13;5201977;28;20045;-76
2022/05/13 00:46:16;;;;;;;9.25;7.03;;;;;;;11.08;95.58;100788.88;5199388;28;20121;-76
2022/05/13 00:48:47;;;;;;;10.38;7.38;;;;;;;10.84;96.12;100784.44;5201979;28;20037;-76
2022/05/13 00:51:22;;;;;;;7.75;6.03;;;;;;;10.93;93.32;100783.28;5201435;28;20414;-76
2022/05/13 00:53:52;;;;;;;8.13;6.55;;;;;;;10.64;97.37;100780.75;5201350;28;20394;-76
2022/05/13 00:56:23;;;;;;;9.32;6.97;;;;;;;10.43;99.27;100787.56;5201356;28;20164;-76
2022/05/13 00:58:57;;;;;;;13.35;7.50;;;;;;;10.22;100.00;100776.91;5201020;28;20411;-76
2022/05/13 01:01:29;;;;;;;17.20;8.02;;;;;;;10.35;100.00;100771.25;5201566;28;20125;-76
2022/05/13 01:04:07;;;;;;;8.48;6.38;;;;;;;10.71;98.83;100777.06;5201498;28;20035;-76
2022/05/13 01:06:42;;;;;;;9.80;6.95;;;;;;;10.75;98.71;100778.66;5198240;28;20032;-76
2022/05/13 01:09:12;;;;;;;10.25;7.15;;;;;;;10.79;98.23;100780.25;5201900;28;20067;-76
2022/05/13 01:11:44;;;;;;;10.18;6.68;;;;;;;10.65;98.94;100772.03;5201615;28;20118;-76
2022/05/13 01:14:20;;;;;;;12.20;7.65;;;;;;;10.51;98.66;100769.03;5201826;28;20479;-76
2022/05/13 01:19:40;;;;;;;9.95;7.20;;;;;;;10.57;100.00;100774.03;5198379;28;20099;-76
2022/05/13 01:22:15;;;;;;;14.75;7.43;;;;;;;10.52;99.44;100781.19;5201091;28;20542;-76
2022/05/13 01:24:45;;;;;;;11.85;7.40;;;;;;;10.59;98.47;100772.22;5201150;28;20032;-76
2022/05/13 01:27:16;;;;;;;9.02;6.93;;;;;;;10.39;98.34;100785.06;5200968;28;20803;-76
2022/05/13 01:29:46;;;;;;;12.67;7.60;;;;;;;10.37;99.52;100776.44;5201256;28;20021;-76
2022/05/13 01:32:16;;;;;;;9.43;6.60;;;;;;;10.33;99.41;100775.66;5200907;28;20307;-76
2022/05/13 01:34:46;;;;;;;9.18;6.65;;;;;;;10.21;100.00;100769.97;5201121;28;20399;-76
2022/05/13 01:37:17;;;;;;;9.98;6.70;;;;;;;10.21;99.01;100783.03;5200870;28;20112;-76
2022/05/13 01:39:47;;;;;;;10.07;7.00;;;;;;;10.12;98.11;100775.47;5201069;28;20025;-76
2022/05/13 01:42:18;;;;;;;9.75;7.25;;;;;;;10.10;98.91;100785.97;5200597;28;20276;-76
2022/05/13 01:44:48;;;;;;;9.55;6.88;;;;;;;9.95;98.25;100772.47;5201040;28;20075;-76
2022/05/13 01:47:18;;;;;;;9.80;6.82;;;;;;;9.71;100.00;100773.22;5200830;28;20036;-76
2022/05/13 01:49:48;;;;;;;8.38;6.47;;;;;;;9.89;100.00;100772.66;5200543;28;20504;-76
2022/05/13 01:52:19;;;;;;;9.82;6.72;;;;;;;9.90;100.00;100774.38;5200401;28;20029;-76
2022/05/13 01:54:50;;;;;;;10.90;7.10;;;;;;;9.83;100.00;100776.31;5200743;28;20108;-76
2022/05/13 01:57:20;;;;;;;10.75;7.07;;;;;;;9.88;100.00;100765.75;5200344;28;20032;-76
2022/05/13 01:59:50;;;;;;;9.70;6.60;;;;;;;9.82;100.00;100772.00;5201028;28;20028;-76
2022/05/13 02:02:21;;;;;;;11.55;7.45;;;;;;;9.70;100.00;100761.06;5200740;28;20030;-76
2022/05/13 02:04:51;;;;;;;10.40;7.60;;;;;;;9.66;100.00;100757.69;5200612;28;20397;-76
2022/05/13 02:07:21;;;;;;;9.27;6.90;;;;;;;9.59;100.00;100752.69;5181714;28;20044;-76
2022/05/13 02:09:52;;;;;;;11.07;7.53;;;;;;;9.45;100.00;100755.69;5200532;28;20108;-76
2022/05/13 02:12:22;;;;;;;13.97;7.83;;;;;;;9.76;100.00;100753.03;5182805;28;20037;-76
2022/05/13 02:14:52;;;;;;;9.82;7.38;;;;;;;9.62;100.00;100770.88;5200819;28;20283;-76
2022/05/13 02:17:22;;;;;;;10.57;7.93;;;;;;;9.40;100.00;100757.56;5200955;28;20032;-76
2022/05/13 02:19:53;;;;;;;13.67;8.30;;;;;;;9.34;100.00;100757.72;5200290;28;20398;-76
2022/05/13 02:22:23;;;;;;;11.82;8.43;;;;;;;9.54;100.00;100772.84;5200016;28;20310;-76
2022/05/13 02:24:53;;;;;;;12.30;8.38;;;;;;;9.74;100.00;100766.16;5200151;28;20499;-76
2022/05/13 02:27:24;;;;;;;11.90;8.13;;;;;;;9.79;100.00;100760.81;5200400;28;20030;-76
2022/05/13 02:29:54;;;;;;;10.95;8.10;;;;;;;9.79;100.00;100758.19;5199936;28;20037;-76
2022/05/13 02:32:24;;;;;;;11.98;7.32;;;;;;;9.77;100.00;100757.34;5199623;28;20053;-76
2022/05/13 02:34:55;;;;;;;10.88;8.25;;;;;;;9.59;100.00;100763.97;5200392;28;20179;-76
2022/05/13 02:37:26;;;;;;;14.07;8.20;;;;;;;9.41;100.00;100768.84;5200332;28;20038;-76
2022/05/13 02:39:56;;;;;;;10.02;7.97;;;;;;;9.82;100.00;100765.94;5200458;28;20773;-76
2022/05/13 02:42:27;;;;;;;10.45;7.55;;;;;;;9.80;100.00;100768.56;5200128;28;20056;-76
2022/05/13 02:44:57;;;;;;;10.77;8.43;;;;;;;9.44;100.00;100773.97;5200467;28;20036;-76
2022/05/13 02:47:27;;;;;;;11.48;8.48;;;;;;;9.67;100.00;100769.00;5200432;28;20487;-76
2022/05/13 02:52:50;;;;;;;12.45;8.25;;;;;;;9.96;100.00;100766.38;5200271;28;20068;-76
2022/05/13 02:55:20;;;;;;;9.75;7.90;;;;;;;10.17;100.00;100760.53;5199839;28;20156;-76
2022/05/13 02:57:50;;;;;;;11.07;8.00;;;;;;;9.96;100.00;100761.16;5200104;28;20079;-76
2022/05/13 03:00:20;;;;;;;11.07;8.20;;;;;;;9.92;100.00;100762.13;5200174;28;20268;-76
2022/05/13 03:02:51;;;;;;;10.60;8.10;;;;;;;9.78;100.00;100762.53;5200012;28;20438;-76
2022/05/13 03:05:21;;;;;;;13.27;8.32;;;;;;;9.65;100.00;100762.97;5199799;28;20029;-76
2022/05/13 03:07:52;;;;;;;9.25;7.53;;;;;;;9.71;100.00;100762.78;5199761;28;20025;-76
2022/05/13 03:10:23;;;;;;;9.45;7.57;;;;;;;9.61;100.00;100758.69;5199662;28;20030;-76
2022/05/13 03:12:53;;;;;;;11.68;8.23;;;;;;;9.66;100.00;100755.06;5200241;28;20532;-76
2022/05/13 03:15:24;;;;;;;12.57;9.25;;;;;;;9.49;100.00;100756.47;5182533;28;20173;-76
2022/05/13 03:17:55;;;;;;;10.85;8.15;;;;;;;9.67;100.00;100756.78;5201226;28;20037;-76
2022/05/13 03:20:26;;;;;;;12.90;8.65;;;;;;;9.64;100.00;100761.25;5203416;28;20060;-76
2022/05/13 03:22:56;;;;;;;12.40;8.55;;;;;;;9.70;100.00;100761.94;5203335;28;20071;-76
2022/05/13 03:25:27;;;;;;;12.60;8.57;;;;;;;9.70;100.00;100754.09;5203441;28;20034;-77
2022/05/13 03:27:57;;;;;;;13.60;8.50;;;;;;;9.47;100.00;100763.47;5203318;28;20040;-76
2022/05/13 03:30:27;;;;;;;12.25;9.45;;;;;;;9.38;100.00;100748.06;5203127;28;20033;-77
2022/05/13 03:32:58;;;;;;;10.55;8.60;;;;;;;9.40;100.00;100751.50;5203520;28;20094;-76
2022/05/13 03:35:28;;;;;;;14.88;9.48;;;;;;;9.26;100.00;100748.41;5185779;28;20024;-76
2022/05/13 03:37:58;;;;;;;11.93;9.13;;;;;;;9.49;100.00;100748.63;5203559;28;20025;-76
2022/05/13 03:40:29;;;;;;;12.35;8.68;;;;;;;9.50;100.00;100747.75;5207589;28;20279;-76
2022/05/13 03:42:59;;;;;;;12.95;8.93;;;;;;;9.33;100.00;100745.59;5202948;28;20100;-76
2022/05/13 03:45:30;;;;;;;10.98;8.40;;;;;;;9.57;100.00;100749.25;5203493;28;20025;-76
2022/05/13 03:48:01;;;;;;;15.40;9.38;;;;;;;9.31;100.00;100756.97;5202975;28;20026;-76
2022/05/13 03:50:33;;;;;;;12.57;8.30;;;;;;;9.62;100.00;100747.41;5202444;28;20108;-76
2022/05/13 03:53:04;;;;;;;13.73;8.90;;;;;;;9.59;100.00;100750.06;5183448;28;20036;-76
2022/05/13 03:55:35;;;;;;;11.90;8.63;;;;;;;9.68;100.00;100752.44;5202324;28;20029;-76
2022/05/13 03:58:05;;;;;;;11.48;8.88;;;;;;;9.54;100.00;100752.84;5192156;28;20479;-77
2022/05/13 04:00:36;;;;;;;14.40;8.52;;;;;;;9.53;100.00;100763.28;5202691;28;20088;-76
2022/05/13 04:03:06;;;;;;;13.80;8.85;;;;;;;9.53;100.00;100760.69;5202741;28;20025;-77
2022/05/13 04:11:15;;;;;;;11.80;8.40;;;;;;;9.73;100.00;100760.97;5243540;28;20047;-79
2022/05/13 04:16:33;;;;;;;10.20;8.30;;;;;;;9.98;100.00;100747.13;5246928;28;20106;-79
2022/05/13 04:19:04;;;;;;;11.07;7.80;;;;;;;10.03;100.00;100757.50;5246038;28;20108;-79
2022/05/13 04:21:36;;;;;;;12.50;7.90;;;;;;;10.28;100.00;100758.44;5243411;28;20033;-79
2022/05/13 04:24:10;;;;;;;11.18;8.07;;;;;;;9.90;100.00;100753.50;5245102;28;20039;-79
2022/05/13 04:26:40;;;;;;;10.80;8.40;;;;;;;9.98;100.00;100756.75;5246415;28;20028;-79
2022/05/13 04:29:11;;;;;;;11.00;8.43;;;;;;;10.34;100.00;100755.63;5246153;28;20061;-79
2022/05/13 04:31:43;;;;;;;12.23;8.02;;;;;;;11.02;100.00;100748.06;5246293;28;20504;-79
2022/05/13 04:34:13;;;;;;;10.85;7.80;;;;;;;11.59;96.72;100743.41;5246463;28;20040;-79
2022/05/13 04:36:44;;;;;;;9.82;6.57;;;;;;;11.91;94.57;100744.78;5245204;28;20020;-79
2022/05/13 04:39:14;;;;;;;8.57;6.57;;;;;;;12.34;92.19;100745.72;5246504;28;20032;-79
2022/05/13 04:44:33;;;;;;;8.40;6.40;;;;;;;12.37;92.01;100745.59;5246881;28;20040;-80
2022/05/13 04:48:15;;;;;;;7.68;5.57;;;;;;;12.29;96.14;100744.19;5247181;28;20028;-79
2022/05/13 04:49:56;;;;;;;7.95;6.18;;;;;;;13.72;89.60;100747.59;5247804;28;20456;-79
2022/05/13 04:52:26;;;;;;;10.88;5.82;;;;;;;13.99;84.12;100746.31;5246838;28;20043;-79
2022/05/13 04:54:56;;;;;;;8.80;5.93;;;;;;;14.78;82.60;100744.22;5245123;28;20020;-79
2022/05/13 04:57:27;;;;;;;6.72;5.50;;;;;;;14.07;87.41;100745.03;5245006;28;20035;-79
2022/05/13 04:59:57;;;;;;;8.03;5.57;;;;;;;13.51;90.26;100745.91;5244747;28;20032;-79
2022/05/13 05:02:28;;;;;;;7.97;5.40;;;;;;;13.82;90.24;100746.22;5246734;28;20740;-79
2022/05/13 05:04:59;;;;;;;7.55;5.75;;;;;;;14.92;84.39;100745.19;5246086;28;20285;-79
2022/05/13 05:07:29;;;;;;;9.48;5.72;;;;;;;15.08;84.75;100738.22;5246354;28;20095;-79
2022/05/13 05:09:59;;;;;;;8.73;5.30;;;;;;;15.87;79.20;100735.78;5246583;28;20032;-79
2022/05/13 05:12:30;;;;;;;8.40;5.50;;;;;;;14.66;85.25;100750.06;5243663;28;20382;-79
2022/05/13 05:15:00;;;;;;;8.38;5.00;;;;;;;16.15;81.29;100734.16;5248914;28;20287;-79
2022/05/13 05:17:30;;;;;;;8.47;5.07;;;;;;;16.16;79.78;100737.63;5247245;28;20486;-79
2022/05/13 05:20:01;;;;;;;7.47;5.10;;;;;;;15.21;84.87;100755.94;5245120;28;20336;-79
2022/05/13 05:22:32;;;;;;;9.15;5.50;;;;;;;14.82;87.82;100742.19;5244269;28;20028;-79
2022/05/13 05:25:02;;;;;;;8.90;5.25;;;;;;;14.25;90.88;100749.44;5243527;28;20017;-79
2022/05/13 05:27:35;;;;;;;9.20;6.07;;;;;;;13.61;95.47;100752.47;5245493;28;20024;-79
2022/05/13 05:30:07;;;;;;;9.75;6.30;;;;;;;13.64;95.78;100747.94;5240891;28;20062;-79
2022/05/13 05:32:41;;;;;;;8.95;5.60;;;;;;;13.85;94.31;100749.56;5243829;28;20432;-79
2022/05/13 05:35:18;;;;;;;9.57;6.18;;;;;;;13.87;94.05;100742.47;5243486;28;20026;-79
2022/05/13 05:37:48;;;;;;;10.38;6.07;;;;;;;13.87;95.47;100746.88;5241571;28;20089;-79
2022/05/13 05:40:20;;;;;;;14.93;5.78;;;;;;;14.37;89.77;100753.25;5242090;28;20578;-79
2022/05/13 05:42:50;;;;;;;8.35;5.78;;;;;;;15.97;83.45;100751.00;5243889;28;20028;-79
2022/05/13 05:45:22;;;;;;;9.25;5.45;;;;;;;17.37;79.30;100738.41;5242745;28;20493;-80
2022/05/13 05:47:53;;;;;;;8.43;4.35;;;;;;;18.91;75.27;100738.97;5242243;28;20564;-79
2022/05/13 05:50:23;;;;;;;7.90;4.55;;;;;;;18.78;73.09;100741.56;5241862;28;20563;-79
2022/05/13 05:52:54;;;;;;;8.25;4.68;;;;;;;18.53;73.29;100748.56;5244794;28;20028;-79
2022/05/13 05:58:15;;;;;;;9.40;4.65;;;;;;;17.84;77.16;100753.03;5245817;28;20278;-80
2022/05/13 06:00:49;;;;;;;7.25;4.55;;;;;;;18.36;75.29;100758.56;5246057;28;20676;-80
2022/05/13 06:03:19;;;;;;;8.65;4.38;;;;;;;18.53;72.22;100759.16;5244495;28;20032;-80
2022/05/13 06:06:00;;;;;;;9.45;4.93;;;;;;;18.52;72.96;100761.94;5245146;28;20036;-80
2022/05/13 06:08:31;;;;;;;8.88;4.75;;;;;;;17.60;74.58;100772.22;5246205;28;20028;-80
2022/05/13 06:11:01;;;;;;;8.98;4.60;;;;;;;16.86;78.00;100784.59;5244759;28;20097;-79
2022/05/13 06:13:32;;;;;;;8.70;4.28;;;;;;;17.17;76.97;100778.34;5245627;28;20059;-79
2022/05/13 06:16:03;;;;;;;8.63;4.80;;;;;;;17.58;75.86;100774.09;5244911;28;20040;-79
2022/05/13 06:18:38;;;;;;;8.60;4.13;;;;;;;17.56;74.18;100789.22;5245281;28;20056;-79
2022/05/13 06:21:08;;;;;;;7.27;3.77;;;;;;;17.58;74.46;100790.81;5240644;28;20020;-79
2022/05/13 06:23:38;;;;;;;5.60;3.30;;;;;;;16.99;75.60;100779.44;5245756;28;20031;-79
2022/05/13 06:26:09;;;;;;;6.13;3.45;;;;;;;17.22;73.88;100790.34;5245680;28;20267;-79
2022/05/13 06:28:39;;;;;;;6.18;2.90;;;;;;;16.94;73.34;100794.72;5245720;28;20406;-79
2022/05/13 06:31:10;;;;;;;8.18;2.50;;;;;;;16.93;71.85;100790.34;5245557;28;20032;-79
2022/05/13 06:33:40;;;;;;;8.13;2.90;;;;;;;17.00;71.45;100786.41;5244114;28;20024;-79
2022/05/13 06:36:10;;;;;;;13.82;3.42;;;;;;;16.50;73.01;100799.03;5247223;28;20062;-79
2022/05/13 06:39:03;;;;;;;15.32;3.83;;;;;;;16.29;72.74;100807.25;5245951;28;20065;-79
2022/05/13 06:41:37;;;;;;;7.88;2.90;;;;;;;16.35;73.65;100799.03;5247615;28;20036;-79
2022/05/13 06:44:08;;;;;;;5.90;2.83;;;;;;;16.36;73.51;100809.47;5242788;28;20032;-78
2022/05/13 06:46:39;;;;;;;5.63;2.78;;;;;;;16.10;73.17;100817.09;5245852;28;20070;-78
2022/05/13 06:49:12;;;;;;;9.90;3.85;;;;;;;16.29;74.16;100812.50;5246179;28;20429;-78
2022/05/13 06:51:42;;;;;;;11.52;4.80;;;;;;;16.06;73.93;100818.19;5245230;28;20028;-78
2022/05/13 06:54:13;;;;;;;7.38;3.08;;;;;;;16.02;75.43;100822.78;5247672;28;20036;-78
2022/05/13 06:56:44;;;;;;;7.82;3.30;;;;;;;15.61;76.20;100820.63;5247406;28;20024;-79
2022/05/13 06:59:14;;;;;;;7.18;3.45;;;;;;;15.60;75.69;100829.47;5248924;28;20028;-78
2022/05/13 07:01:44;;;;;;;11.27;3.27;;;;;;;15.68;75.63;100825.50;5247775;28;20036;-77
2022/05/13 07:04:15;;;;;;;5.63;2.67;;;;;;;15.72;75.65;100821.75;5248938;28;20335;-78
2022/05/13 07:06:45;;;;;;;8.70;2.47;;;;;;;15.70;73.46;100823.63;5247789;28;21002;-78
2022/05/13 07:09:15;;;;;;;6.65;2.13;;;;;;;15.68;73.14;100830.78;5249055;28;20024;-79
2022/05/13 07:11:46;;;;;;;8.10;2.20;;;;;;;15.55;74.36;100828.84;5249066;28;20028;-77
2022/05/13 07:14:17;;;;;;;5.55;2.08;;;;;;;15.40;73.35;100822.56;5248530;28;20271;-77
2022/05/13 07:16:47;;;;;;;6.18;2.00;;;;;;;15.32;74.27;100823.94;5248066;28;20027;-78
2022/05/13 07:19:17;;;;;;;6.82;2.30;;;;;;;15.38;74.92;100823.59;5247334;28;20020;-78
2022/05/13 07:21:48;;;;;;;4.88;2.10;;;;;;;15.28;73.98;100828.47;5246944;28;20454;-78
2022/05/13 07:24:19;;;;;;;6.30;1.92;;;;;;;15.45;74.05;100828.47;5246954;28;20044;-77
2022/05/13 07:26:49;;;;;;;6.60;2.20;;;;;;;15.99;73.86;100833.50;5248687;28;20518;-78
2022/05/13 07:29:20;;;;;;;6.18;1.90;;;;;;;15.90;71.64;100825.22;5248685;28;20024;-78
2022/05/13 07:31:50;;;;;;;7.47;2.17;;;;;;;15.80;72.66;100821.34;5247268;28;20111;-78
2022/05/13 07:34:21;;;;;;;5.67;1.97;;;;;;;15.86;72.92;100818.41;5248088;28;20967;-78
2022/05/13 07:36:54;;;;;;;7.20;2.15;;;;;;;15.68;74.36;100822.88;5247236;28;20286;-78
2022/05/13 07:42:13;;;;;;;8.38;2.10;;;;;;;15.86;73.14;100811.34;5244745;28;20071;-78
2022/05/13 07:44:43;;;;;;;6.50;2.00;;;;;;;15.99;73.43;100808.91;5247801;28;20032;-78
2022/05/13 07:47:16;;;;;;;6.05;2.13;;;;;;;16.83;70.58;100810.31;5248554;28;20036;-79
2022/05/13 07:49:47;;;;;;;6.88;2.00;;;;;;;17.63;68.12;100803.78;5247972;28;20031;-81
2022/05/13 07:52:17;;;;;;;6.93;2.10;;;;;;;19.36;64.72;100800.34;5249000;28;20056;-80
2022/05/13 07:54:47;;;;;;;5.97;2.15;;;;;;;20.40;60.40;100787.63;5248366;28;20031;-80
2022/05/13 07:57:18;;;;;;;5.00;2.00;;;;;;;20.83;59.91;100798.56;5248233;28;20048;-81
2022/05/13 08:02:37;;;;;;;7.38;2.20;;;;;;;21.51;58.15;100778.22;5246352;28;20028;-81
2022/05/13 08:05:09;;;;;;;7.20;2.22;;;;;;;21.07;58.35;100790.56;5247687;28;20024;-81
2022/05/13 08:07:39;;;;;;;7.00;2.00;;;;;;;22.27;57.07;100786.41;5248230;28;20099;-79
2022/05/13 08:10:10;;;;;;;9.70;2.22;;;;;;;23.13;54.13;100784.50;5248283;28;20107;-82
2022/05/13 08:12:42;;;;;;;7.78;2.20;;;;;;;23.59;55.37;100782.28;5248622;28;20085;-82
2022/05/13 08:15:12;;;;;;;6.72;2.03;;;;;;;23.84;53.71;100776.53;5249026;28;20506;-81
2022/05/13 08:17:42;;;;;;;8.77;2.10;;;;;;;23.52;53.74;100778.44;5248819;28;20034;-81
2022/05/13 08:20:12;;;;;;;5.80;2.40;;;;;;;21.94;55.79;100789.91;5247361;28;20055;-81
2022/05/13 08:22:43;;;;;;;7.50;2.50;;;;;;;20.26;59.38;100793.94;5247314;28;20052;-81
2022/05/13 08:25:13;;;;;;;6.75;2.70;;;;;;;19.99;61.03;100798.50;5247323;28;20496;-80
2022/05/13 08:27:44;;;;;;;9.35;2.65;;;;;;;20.05;60.66;100798.13;5248353;28;20504;-79
2022/05/13 08:30:15;;;;;;;10.43;2.78;;;;;;;22.93;56.47;100790.59;5247642;28;20020;-80
2022/05/13 08:32:45;;;;;;;6.65;2.42;;;;;;;24.95;53.19;100787.84;5249049;28;20103;-81
2022/05/13 08:35:16;;;;;;;10.45;2.72;;;;;;;25.18;50.80;100783.88;5247772;28;20116;-82
2022/05/13 08:37:52;;;;;;;4.55;2.13;;;;;;;24.74;51.29;100781.75;5248268;28;20064;-82
2022/05/13 08:40:41;;;;;;;9.07;2.30;;;;;;;24.71;51.37;100795.41;5248681;28;20029;-81
2022/05/13 08:43:15;;;;;;;7.18;2.50;;;;;;;24.77;51.76;100784.16;5244627;28;20028;-80
2022/05/13 08:45:53;;;;;;;9.20;2.57;;;;;;;23.55;52.61;100798.69;5248763;28;20039;-81
2022/05/13 08:48:42;;;;;;;4.90;2.10;;;;;;;22.97;53.38;100797.38;5247265;28;20131;-80
2022/05/13 08:51:40;;;;;;;5.60;1.88;;;;;;;23.88;51.73;100799.31;5246762;28;20021;-81
2022/05/13 08:54:16;;;;;;;6.35;1.85;;;;;;;22.70;53.51;100796.97;5248371;28;20031;-81
2022/05/13 08:56:50;;;;;;;4.72;1.63;;;;;;;23.01;53.42;100803.31;5246659;28;20016;-81
2022/05/13 08:59:31;;;;;;;8.85;2.35;;;;;;;23.72;51.35;100793.56;5246366;28;20039;-79
2022/05/13 09:02:10;;;;;;;4.85;1.77;;;;;;;23.09;53.08;100791.03;5247888;28;20024;-80
2022/05/13 09:04:54;;;;;;;8.30;1.92;;;;;;;22.63;54.16;100804.75;5246392;28;20111;-81
2022/05/13 09:07:25;;;;;;;5.25;1.70;;;;;;;23.53;52.33;100808.66;5245951;28;20020;-81
2022/05/13 09:09:59;;;;;;;8.00;2.08;;;;;;;22.48;53.76;100800.66;5247395;28;20056;-81
2022/05/13 09:12:43;;;;;;;4.15;1.63;;;;;;;22.47;53.17;100810.50;5245385;28;20032;-80
2022/05/13 09:15:48;;;;;;;8.20;1.73;;;;;;;22.09;55.62;100809.16;5243245;28;20044;-80
2022/05/13 09:18:33;;;;;;;6.30;1.70;;;;;;;21.17;56.42;100810.16;5243766;28;20064;-80
2022/05/13 09:21:13;;;;;;;8.05;1.67;;;;;;;21.44;55.95;100805.41;5245555;28;20040;-80
2022/05/13 09:23:43;;;;;;;8.05;1.40;;;;;;;22.33;54.88;100810.72;5244448;28;20024;-80
2022/05/13 09:26:20;;;;;;;8.90;1.75;;;;;;;21.22;56.79;100810.69;5246480;28;20100;-78
2022/05/13 09:29:46;;;;;;;5.90;1.60;;;;;;;20.58;58.24;100808.41;5246103;28;20435;-80
2022/05/13 09:33:26;;;;;;;4.57;1.50;;;;;;;20.98;59.63;100818.69;5221715;28;20041;-80
2022/05/13 09:37:17;;;;;;;6.70;1.90;;;;;;;20.15;59.81;100811.59;5221153;28;20483;-79
2022/05/13 09:41:09;;;;;;;7.20;1.63;;;;;;;20.29;60.12;100804.34;5217465;28;20029;-80
2022/05/13 09:43:43;;;;;;;5.20;1.88;;;;;;;21.14;58.80;100792.66;5238296;28;20029;-80
2022/05/13 09:46:22;;;;;;;5.82;1.70;;;;;;;21.30;57.40;100797.63;5227955;28;20382;-79
2022/05/13 09:49:04;;;;;;;5.47;1.80;;;;;;;21.76;57.11;100798.50;5227771;28;20032;-79
2022/05/13 09:51:54;;;;;;;7.03;1.70;;;;;;;21.57;58.20;100806.19;5246356;28;20512;-80
2022/05/13 09:54:26;;;;;;;4.10;1.42;;;;;;;22.84;56.66;100804.69;5241371;28;20036;-81
2022/05/13 09:57:08;;;;;;;6.30;1.80;;;;;;;21.78;56.87;100809.88;5247266;28;20036;-80
2022/05/13 09:59:42;;;;;;;8.07;2.00;;;;;;;20.32;59.75;100828.00;5243121;28;20027;-80
2022/05/13 10:02:15;;;;;;;5.10;1.70;;;;;;;19.43;60.87;100830.78;5246023;28;20081;-80
2022/05/13 10:04:51;;;;;;;8.18;1.83;;;;;;;19.05;62.51;100835.13;5244925;28;20792;-81
2022/05/13 10:07:24;;;;;;;6.20;1.60;;;;;;;18.58;63.73;100844.47;5211247;23;20053;-80
2022/05/13 10:15:41;;;;;;;6.40;2.20;;;;;;;18.06;65.77;100842.50;5205539;28;20095;-79
2022/05/13 10:18:21;;;;;;;5.13;1.70;;;;;;;19.21;64.13;100846.44;5205007;28;20048;-79
2022/05/13 10:20:57;;;;;;;7.18;1.80;;;;;;;19.68;62.15;100830.81;5205939;28;20550;-79
2022/05/13 10:23:41;;;;;;;9.05;2.10;;;;;;;19.95;60.06;100828.06;5205734;28;20103;-78
2022/05/13 10:26:16;;;;;;;5.75;1.60;;;;;;;19.80;60.82;100834.44;5192384;28;20029;-80
2022/05/13 10:28:57;;;;;;;6.85;1.45;;;;;;;20.04;60.92;100822.97;5207325;28;20017;-79
2022/05/13 10:31:30;;;;;;;5.57;1.42;;;;;;;20.02;61.11;100827.56;5207963;28;20108;-79
2022/05/13 10:34:13;;;;;;;7.03;2.00;;;;;;;19.74;61.39;100829.53;5208816;28;20033;-79
2022/05/13 10:37:02;;;;;;;4.60;1.80;;;;;;;19.37;62.38;100836.50;5187500;28;20486;-79
2022/05/13 10:39:44;;;;;;;8.48;1.70;;;;;;;19.32;61.45;100830.66;5205576;28;20474;-79
2022/05/13 10:42:42;;;;;;;6.50;2.00;;;;;;;19.55;62.27;100834.38;5211136;28;20553;-79
2022/05/13 10:45:19;;;;;;;4.15;1.67;;;;;;;20.03;60.49;100828.38;5180413;28;20471;-79
2022/05/13 10:47:53;;;;;;;7.03;1.95;;;;;;;19.90;59.33;100825.72;5196785;28;20237;-80
2022/05/13 10:50:32;;;;;;;7.55;2.10;;;;;;;19.66;62.16;100832.72;5214421;28;20078;-79
2022/05/13 10:53:28;;;;;;;3.88;1.52;;;;;;;20.02;60.18;100824.91;5208754;28;20028;-81
2022/05/13 10:56:15;;;;;;;6.38;1.70;;;;;;;19.51;59.36;100823.16;5207158;28;20116;-80
2022/05/13 10:59:33;;;;;;;4.68;1.80;;;;;;;19.56;59.85;100834.31;5206476;28;20037;-78
2022/05/13 11:02:41;;;;;;;6.93;1.75;;;;;;;18.83;60.83;100845.44;5182959;28;20434;-79
2022/05/13 11:05:47;;;;;;;6.03;1.73;;;;;;;19.11;61.59;100840.00;5192836;28;20032;-80
2022/05/13 11:08:24;;;;;;;8.15;1.80;;;;;;;18.89;61.62;100849.44;5214353;28;20048;-79
2022/05/13 11:11:16;;;;;;;6.82;1.77;;;;;;;19.31;62.07;100842.19;5199062;28;20022;-80
2022/05/13 11:14:11;;;;;;;5.30;1.70;;;;;;;19.88;60.90;100837.38;5203266;28;20172;-81
2022/05/13 11:17:02;;;;;;;3.65;1.50;;;;;;;19.79;60.50;100843.34;5186499;28;20502;-79
2022/05/13 11:19:51;;;;;;;5.75;1.70;;;;;;;20.06;60.57;100852.91;5204003;28;20064;-79
2022/05/13 11:22:33;;;;;;;9.02;2.08;;;;;;;20.10;59.11;100848.25;5206648;28;20109;-79
2022/05/13 11:28:55;;;;;;;7.03;1.65;;;;;;;20.14;59.13;100844.41;5206515;28;20056;-80
2022/05/13 11:31:41;;;;;;;7.75;2.13;;;;;;;19.68;59.48;100849.38;5191378;28;20033;-80
2022/05/13 11:34:11;;;;;;;;;;;;;;;20.02;59.73;100832.84;5199783;28;20108;-80
2022/05/13 11:36:51;;;;;;;5.87;1.83;;;;;;;19.82;60.69;100849.25;5210352;28;20389;-79
2022/05/13 11:39:31;;;;;;;6.78;1.77;;;;;;;19.74;58.54;100841.00;5208036;28;20029;-80
2022/05/13 11:42:22;;;;;;;6.10;1.70;;;;;;;19.49;59.77;100856.91;5189504;28;20021;-80
2022/05/13 11:45:09;;;;;;;6.20;1.67;;;;;;;19.09;60.30;100849.03;5205651;28;20572;-79
2022/05/13 11:47:56;;;;;;;6.78;1.70;;;;;;;19.00;61.49;100841.66;5195512;28;20061;-81
2022/05/13 11:50:29;;;;;;;6.45;1.63;;;;;;;18.73;62.05;100861.16;5225533;28;20097;-79
2022/05/13 11:53:00;;;;;;;5.45;1.70;;;;;;;18.63;62.07;100852.09;5191866;28;20044;-81
2022/05/13 11:55:42;;;;;;;3.67;1.17;;;;;;;18.71;61.59;100858.59;5203201;28;20018;-80
2022/05/13 11:58:41;;;;;;;2.92;1.05;;;;;;;18.63;60.80;100858.25;5206701;28;20117;-79
2022/05/13 12:01:11;;;;;;;6.00;1.55;;;;;;;18.65;59.97;100863.44;5192642;28;20022;-79
2022/05/13 12:03:42;;;;;;;4.05;1.15;;;;;;;18.90;59.83;100867.91;5193211;28;20029;-79
2022/05/13 12:06:12;;;;;;;4.57;1.05;;;;;;;19.28;59.30;100857.47;5220997;28;20041;-80
2022/05/13 12:08:53;;;;;;;4.68;1.25;;;;;;;19.40;59.72;100856.63;5209309;28;20087;-80
2022/05/13 12:11:59;;;;;;;4.55;1.13;;;;;;;19.26;60.09;100857.56;5211077;28;20033;-79
2022/05/13 12:14:39;;;;;;;4.10;1.30;;;;;;;19.22;58.62;100863.16;5160632;28;20040;-80
2022/05/13 12:17:19;;;;;;;4.35;1.40;;;;;;;19.17;58.73;100854.69;5209583;28;20017;-79
2022/05/13 12:20:09;;;;;;;6.38;1.27;;;;;;;19.45;58.75;100843.94;5216239;28;20056;-80
2022/05/13 12:23:08;;;;;;;3.80;0.95;;;;;;;19.37;59.45;100852.41;5190014;28;20064;-79
2022/05/13 12:25:38;;;;;;;4.05;0.95;;;;;;;19.28;59.50;100853.00;5206320;28;20113;-79
2022/05/13 12:28:21;;;;;;;5.37;1.10;;;;;;;19.49;59.17;100850.72;5206912;28;20053;-80
2022/05/13 12:30:52;;;;;;;7.05;1.10;;;;;;;19.30;60.19;100859.06;5226287;28;20064;-79
2022/05/13 12:33:28;;;;;;;3.67;0.88;;;;;;;19.37;59.79;100855.06;5203088;28;20044;-80